Terminal Aerodrome Forecast
Issued by NWS

Home | Current Version | Previous Version | Text Only | Print | Product List | Glossary Off
Versions: 1 2 3 4 5 6 7 8 9 10 11 12 13 14 15 16 17 18 19 20 21 22 23 24 25 26 27 28 29 30 31 32 33 34 35 36 37 38 39 40

000
FTUS43 KLOT 241700 RRA
TAFMDW
TAF
KMDW 241742Z 2418/2518 28009KT P6SM BKN030
     FM242100 26006KT P6SM BKN020
     FM250700 06003KT 6SM HZ OVC010
     FM251100 08010G18KT 3SM -SN OVC012
     FM251200 05012G25KT 1 1/2SM -SN BR SCT008 OVC010
      TEMPO 2514/2517 3/4SM -SN BR OVC006=

USA.gov is the U.S. government's official web portal to all federal, state and local government web resources and services.